createdAt,value
2022-10-13T03:54:49.514Z,40.05
2022-10-13T03:59:53.931Z,50.72
2022-10-13T04:04:55.628Z,50.47
2022-10-13T04:09:59.454Z,46.08
2022-10-13T04:15:01.225Z,41.92
2022-10-13T04:20:03.553Z,43.10
2022-10-13T04:25:08.159Z,55.33
2022-10-13T04:30:13.468Z,54.97
2022-10-13T04:35:15.485Z,48.28
2022-10-13T04:40:18.610Z,56.13
2022-10-13T04:45:20.263Z,48.50
2022-10-13T04:50:22.168Z,42.85
2022-10-13T04:55:25.329Z,35.70
2022-10-13T05:00:27.129Z,39.47
2022-10-13T05:05:28.904Z,35.13
2022-10-13T05:10:34.925Z,34.45
2022-10-13T05:15:38.952Z,32.15
2022-10-13T05:20:40.647Z,41.00
2022-10-13T05:25:43.806Z,34.50
2022-10-13T05:30:45.475Z,34.75
2022-10-13T05:35:47.140Z,42.70
2022-10-13T05:40:50.209Z,34.05
2022-10-13T05:45:51.866Z,27.77
2022-10-13T05:50:55.465Z,43.25
2022-10-13T05:56:03.776Z,36.10
2022-10-13T06:01:06.973Z,36.40
2022-10-13T06:06:09.370Z,29.65
2022-10-13T06:11:12.474Z,35.05
2022-10-13T06:16:14.144Z,37.38
2022-10-13T06:21:15.809Z,35.17
2022-10-13T06:26:18.986Z,48.00
2022-10-13T06:31:20.705Z,41.13
2022-10-13T06:36:22.418Z,37.50
2022-10-13T06:41:25.500Z,50.15
2022-10-13T06:46:27.149Z,42.67
2022-10-13T06:51:28.891Z,34.53
2022-10-13T06:56:32.057Z,49.67
2022-10-13T07:01:36.758Z,68.40
2022-10-13T07:06:42.392Z,56.60
2022-10-13T07:11:45.939Z,41.45
2022-10-13T07:16:47.909Z,34.72
2022-10-13T07:21:49.621Z,37.50
2022-10-13T07:26:52.769Z,42.65
2022-10-13T07:31:54.477Z,45.90
2022-10-13T07:36:56.577Z,41.70
2022-10-13T07:41:59.614Z,42.13
2022-10-13T07:47:01.355Z,44.80
2022-10-13T07:52:03.309Z,51.55
2022-10-13T07:57:06.411Z,55.38
2022-10-13T08:02:09.328Z,59.40
2022-10-13T08:07:11.117Z,63.38
2022-10-13T08:12:14.172Z,51.30
2022-10-13T08:17:16.034Z,61.92
2022-10-13T08:22:17.747Z,49.20
2022-10-13T08:27:22.789Z,51.35
2022-10-13T08:32:24.622Z,57.20
2022-10-13T08:37:26.265Z,51.70
2022-10-13T08:42:29.522Z,62.33
2022-10-13T08:47:43.689Z,58.58
2022-10-13T08:52:49.377Z,61.75
2022-10-13T08:57:52.611Z,56.53
2022-10-13T09:02:57.662Z,69.18
2022-10-13T09:07:59.859Z,53.85
2022-10-13T09:13:03.309Z,48.15
2022-10-13T09:18:10.824Z,56.53
2022-10-13T09:23:19.483Z,62.10
2022-10-13T09:28:24.716Z,63.22
2022-10-13T09:38:28.937Z,64.82
2022-10-13T09:43:33.588Z,67.43
2022-10-13T09:48:37.554Z,72.57
2022-10-13T09:53:40.887Z,62.72
2022-10-13T09:58:48.848Z,64.15
2022-10-13T10:03:51.448Z,66.00
2022-10-13T10:09:14.368Z,73.68
2022-10-13T10:14:49.510Z,92.82
2022-10-13T10:20:09.213Z,90.30
2022-10-13T10:25:22.660Z,91.70
2022-10-13T10:30:26.547Z,94.10
2022-10-13T10:35:44.175Z,97.95
2022-10-13T10:40:58.278Z,97.62
2022-10-13T10:46:01.483Z,88.87
2022-10-13T10:51:07.687Z,90.03
2022-10-13T10:56:18.926Z,87.82
2022-10-13T11:01:32.973Z,81.47
2022-10-13T11:06:36.297Z,78.62
2022-10-13T11:11:40.612Z,68.30
2022-10-13T11:17:10.049Z,73.72
2022-10-13T11:22:18.140Z,68.93
2022-10-13T11:27:26.009Z,71.10
2022-10-13T11:32:47.704Z,65.45
2022-10-13T11:38:09.250Z,65.35
2022-10-13T11:43:43.981Z,58.00
2022-10-13T11:49:33.692Z,58.85
2022-10-13T11:54:44.150Z,57.90
2022-10-13T11:59:47.177Z,57.70
2022-10-13T12:05:00.955Z,47.28
2022-10-13T12:10:07.861Z,49.70
2022-10-13T12:15:29.733Z,53.28
2022-10-13T12:20:32.669Z,51.97
2022-10-13T12:25:47.901Z,54.75
2022-10-13T12:30:52.980Z,58.95
2022-10-13T12:35:55.049Z,52.17
2022-10-13T12:40:58.148Z,50.47
2022-10-13T12:45:59.865Z,52.90
2022-10-13T12:51:14.452Z,49.10
2022-10-13T12:56:26.308Z,49.13
2022-10-13T13:01:32.822Z,45.03
2022-10-13T13:06:37.006Z,47.97
2022-10-13T13:11:41.308Z,44.03
2022-10-13T13:17:10.975Z,42.28
2022-10-13T13:22:12.942Z,45.25
2022-10-13T13:27:20.676Z,44.38
2022-10-13T13:32:24.938Z,36.95
2022-10-13T13:37:30.586Z,44.25
2022-10-13T13:42:33.897Z,37.38
2022-10-13T13:47:35.856Z,38.33
2022-10-13T13:52:37.500Z,37.75
2022-10-13T13:57:41.627Z,43.53
2022-10-13T14:02:44.357Z,36.83
2022-10-13T14:07:46.124Z,44.25
2022-10-13T14:12:49.258Z,41.13
2022-10-13T14:17:52.105Z,43.95
2022-10-13T14:22:54.060Z,37.67
2022-10-13T14:28:29.541Z,38.75
2022-10-13T14:33:31.356Z,43.65
2022-10-13T14:38:36.186Z,40.47
2022-10-13T14:43:39.433Z,40.92
2022-10-13T14:48:41.459Z,50.05
2022-10-13T14:53:45.041Z,38.28
2022-10-13T14:58:49.304Z,42.92
2022-10-13T15:09:12.645Z,43.47
2022-10-13T15:14:38.206Z,57.45
2022-10-13T15:19:39.965Z,44.90
2022-10-13T15:24:43.923Z,47.00
2022-10-13T15:29:47.024Z,53.28
2022-10-13T15:34:48.903Z,50.80
2022-10-13T15:39:56.002Z,61.33
2022-10-13T15:45:15.550Z,57.25
2022-10-13T15:50:17.286Z,63.50
2022-10-13T15:55:19.203Z,60.55
2022-10-13T16:00:22.364Z,63.72
2022-10-13T16:05:24.190Z,63.80
2022-10-13T16:10:25.929Z,72.15
2022-10-13T16:15:28.978Z,71.40
2022-10-13T16:20:30.755Z,71.35
2022-10-13T16:25:32.587Z,79.47
2022-10-13T16:30:37.501Z,71.65
2022-10-13T16:35:39.236Z,77.82
2022-10-13T16:40:40.907Z,77.72
2022-10-13T16:45:59.093Z,67.53
2022-10-13T16:51:05.752Z,74.45
2022-10-13T16:56:07.696Z,78.18
2022-10-13T17:01:12.195Z,80.45
2022-10-13T17:06:14.785Z,73.90
2022-10-13T17:11:18.930Z,93.03
2022-10-13T17:16:22.041Z,81.85
2022-10-13T17:38:06.160Z,80.95
2022-10-13T17:43:25.645Z,104.75
2022-10-13T17:48:28.177Z,96.97
2022-10-13T18:04:43.003Z,115.32
2022-10-13T19:20:59.130Z,93.95
2022-10-13T20:34:18.126Z,56.58
2022-10-13T20:39:20.211Z,67.45
2022-10-13T20:44:22.073Z,60.30
2022-10-13T20:49:33.622Z,65.47
2022-10-13T21:11:24.827Z,44.88
2022-10-13T21:16:46.567Z,44.00
2022-10-13T21:21:48.535Z,47.25
2022-10-13T21:26:50.313Z,44.00
2022-10-13T21:31:57.056Z,49.22
2022-10-13T21:36:58.916Z,48.40
2022-10-13T21:42:00.946Z,51.13
2022-10-13T21:47:04.130Z,47.75
2022-10-13T21:52:05.784Z,53.65
2022-10-13T21:57:07.616Z,50.08
2022-10-13T22:02:10.985Z,52.42
2022-10-13T22:07:12.679Z,58.10
2022-10-13T22:12:14.374Z,56.33
2022-10-13T22:17:17.495Z,62.53
2022-10-13T22:22:19.246Z,53.03
2022-10-13T22:27:21.205Z,60.10
2022-10-13T22:32:24.546Z,58.40
2022-10-13T22:37:26.233Z,45.97
2022-10-13T22:42:27.899Z,48.50
2022-10-13T22:47:30.950Z,46.75
2022-10-13T22:52:32.726Z,56.55
2022-10-13T22:57:34.425Z,66.20
2022-10-13T23:02:37.564Z,66.32
2022-10-13T23:07:39.183Z,60.72
2022-10-13T23:12:40.901Z,67.57
2022-10-13T23:17:44.081Z,61.83
2022-10-13T23:22:45.803Z,63.33
2022-10-13T23:27:47.482Z,72.03
2022-10-13T23:32:50.628Z,62.13
2022-10-13T23:37:52.566Z,66.75
2022-10-13T23:42:54.316Z,74.62
2022-10-13T23:47:57.493Z,81.72
2022-10-13T23:52:59.374Z,67.20
2022-10-13T23:58:01.097Z,69.28
